José Martí International Airport
MUHA : now visible

Airfield :











YOU CAN JOIN US ON...

 
LOGIN :

Register | Disclaimer

   EN    FR    IT 

 









Legend :    VFR   Marginal VFR   IFR   Intensive IFR   Very Intensive IFR
Visi :
Ceiling :
>= 8 km
>= 3000ft
5 to 8 km
1000 to 3000 ft
1500m to 5 km
500 to 1000 ft
800 to 1500m
200 to 500 ft
< 800m
< 200 ft
Symbols :   Thunderstorms  Fog  Heavy snow  Heavy precipitations  Wind > 20 kt






- Airport Elevation : 210 ft
- IATA code : HAV


MUHA - José Martí International

CURRENT METAR :
  • 280755Z 09005KT 9000 FEW030 25/25 Q1014

EXPIRED METARs :
  • 280655Z 09006KT 060V120 9000 FEW030 25/25 Q1014
  • 280555Z 09006KT 9000 FEW030 26/26 Q1015

TAF MUHA
Valid from the 28 at 06:00 until the 29 at 06:00 UTC


280500Z 2806/2906 VRB04KT 9000 FEW030 BKN130
BECMG 2813/2815 10008KT
TEMPO 2818/2824 5000 SHRA FEW018CB BKN020
BECMG 2901/2903 VRB04KT FEW030
MUFH FIR / North America



MET'MAP, your aeronautical weather chart ! - Copyright ORBIFLY December 2007 - Disclaimer

ORBIFLY MET'MAP TEAM :

Programming & Development : Alexandra Zaïnal
Concept & original design : Baudouin d'Aumeries
Assistance for programming : Marc-Olivier Méhu
Technical & hardware support : Manuel Goepfert

Contact : metmap@orbifly.com




SOURCES & CREDITS :

   NOAA       Earth
Advisory